Huvudsida
METAR-TAF:

METAR-TAF

Flygplatser :

Librevilles internationella flygplats

Libreville, Gabon

latitud: 00-27N, longitud: 009-25E, höjd: 12 m

Aktuellt väderrapport

Denna rapport gjordes för 13 minuter sedan, klockan 08:00 UTC
Vind 4 kt från syd
Temperatur 27°C
Fuktighet 84%
Tryck 1013 hPa
Sikt 10 km eller mer
Spridda moln på en höjd av 1300 ft

METAR: FOOL 270800Z 18004KT 9999 SCT013 27/24 Q1013 NOSIG

Tid: 09:13 (08:13 UTC)

Väderprognos

Denna rapport gjordes för 3 timmar och 13 minuter sedan, klockan 05:00 UTC
Prognos gäller från 27 kl. 06 UTC till 28 kl. 12 UTC
Vind 7 kt från sydväst
Sikt 10 km eller mer
Spridda moln på en höjd av 1300 ft
Brutna moln på en höjd av 3000 ft
Temporärt
från 27 kl. 12 UTC till 27 kl. 16 UTC
Sikt: 3500 m
Brutna moln på en höjd av 800 ft
Få moln på en höjd av 1600 ft, Cumulonimbus.
Mulet på en höjd av 2300 ft
åska, regn

TAF: FOOL 270500Z 2706/2812 22007KT 9999 SCT013 BKN030 TEMPO 2712/2716 3500 TSRA BKN008 FEW016CB OVC023

Aktuella väderrapporter och prognoser från 4000 flygplatser (METAR- och TAF-rapporter).

De tillgängliga stationerna syns som gula och röda prickar på kartan.

För musen över prickarna för att se namnen på stationerna.

Klicka sedan för att få väderrapporter och prognoser.

För att ändra kartan: Klicka på de gröna knapparna med ett svart kors på för att zooma in; den gröna knappen med ett streck på för att zooma ut; eller på de gröna pilarna för angränsande kartor.


METAR-TAF: